Londonderry, United Kingdom
Current Conditions -  °F | °C
As of 11:20 AM on Tuesday 21 Oct 2014 (Local Time) from EGAE Reporting Station
Rain Showers Rain Showers  
Wind Chill: 50°   Ceiling: Unl
Heat Index: 50°   Visibility: 6mi
Dew Point: 39°   Wind: 36mph
Humidity: 66%   Direction: 310°NW
Pressure: 29.68"   Gusts: 56mph
Location:  54.99°N, 7.31°W
Report Text: EGAE 211020Z 31031G49KT 9000 -SHRA FEW020CB SCT038 10/04 Q1005
Loading
Personal Weather Stations






























Interactive Weather Map New forecast layout! Learn more

10-Day Weather Forecast

Advertisements
Track Severe Weather on mobile